createdAt,value
2023-06-15T00:02:24.232Z,0.60
2023-06-15T00:04:52.367Z,0.50
2023-06-15T00:07:19.452Z,0.60
2023-06-15T00:09:46.641Z,0.52
2023-06-15T00:12:13.694Z,0.50
2023-06-15T00:14:40.661Z,0.68
2023-06-15T00:17:09.501Z,0.70
2023-06-15T00:19:37.395Z,0.52
2023-06-15T00:22:05.509Z,0.70
2023-06-15T00:24:32.719Z,0.70
2023-06-15T00:26:59.763Z,0.80
2023-06-15T00:29:26.750Z,0.80
2023-06-15T00:31:53.750Z,0.85
2023-06-15T00:34:20.848Z,0.60
2023-06-15T00:36:49.545Z,0.80
2023-06-15T00:39:16.456Z,0.70
2023-06-15T00:41:44.564Z,0.65
2023-06-15T00:44:12.111Z,0.70
2023-06-15T00:46:40.449Z,0.60
2023-06-15T00:49:08.837Z,0.70
2023-06-15T00:51:41.141Z,0.73
2023-06-15T00:54:09.653Z,0.70
2023-06-15T00:56:36.903Z,0.73
2023-06-15T00:59:04.412Z,0.90
2023-06-15T01:01:33.159Z,0.70
2023-06-15T01:04:01.336Z,1.08
2023-06-15T01:06:32.993Z,1.30
2023-06-15T01:09:03.327Z,0.80
2023-06-15T01:11:34.169Z,0.80
2023-06-15T01:14:03.051Z,0.80
2023-06-15T01:16:38.952Z,0.90
2023-06-15T01:19:10.857Z,0.88
2023-06-15T01:21:39.617Z,0.90
2023-06-15T01:24:21.469Z,0.80
2023-06-15T01:26:54.686Z,0.73
2023-06-15T01:29:22.712Z,0.70
2023-06-15T01:31:53.588Z,0.88
2023-06-15T01:34:20.883Z,0.70
2023-06-15T01:36:47.959Z,0.93
2023-06-15T01:39:15.713Z,0.75
2023-06-15T01:41:44.180Z,0.80
2023-06-15T01:44:12.047Z,0.60
2023-06-15T01:46:41.504Z,0.73
2023-06-15T01:49:10.086Z,0.80
2023-06-15T01:51:37.980Z,0.65
2023-06-15T01:54:05.071Z,0.50
2023-06-15T01:56:32.718Z,0.80
2023-06-15T01:58:59.835Z,0.60
2023-06-15T02:01:27.315Z,0.93
2023-06-15T02:03:55.902Z,0.70
2023-06-15T02:06:22.976Z,0.80
2023-06-15T02:08:51.424Z,1.10
2023-06-15T02:11:21.196Z,0.85
2023-06-15T02:13:48.968Z,0.70
2023-06-15T02:16:16.470Z,0.63
2023-06-15T02:18:45.936Z,0.70
2023-06-15T02:21:13.569Z,0.77
2023-06-15T02:23:40.892Z,1.20
2023-06-15T02:26:09.348Z,0.80
2023-06-15T02:28:37.761Z,0.98
2023-06-15T02:31:04.791Z,0.70
2023-06-15T02:33:33.584Z,0.90
2023-06-15T02:36:00.925Z,0.93
2023-06-15T02:38:28.003Z,0.68
2023-06-15T02:40:54.919Z,0.70
2023-06-15T02:43:23.137Z,1.10
2023-06-15T02:45:51.516Z,0.80
2023-06-15T02:48:19.226Z,0.73
2023-06-15T02:50:46.503Z,0.80
2023-06-15T02:53:19.415Z,0.65
2023-06-15T02:55:48.160Z,0.80
2023-06-15T02:58:20.783Z,0.70
2023-06-15T03:01:04.064Z,0.70
2023-06-15T03:03:44.125Z,0.82
2023-06-15T03:06:11.869Z,0.90
2023-06-15T03:08:43.836Z,0.70
2023-06-15T03:11:19.986Z,0.90
2023-06-15T03:13:47.987Z,0.88
2023-06-15T03:16:17.270Z,0.90
2023-06-15T03:21:15.813Z,1.20
2023-06-15T03:23:45.809Z,1.00
2023-06-15T03:26:13.600Z,0.70
2023-06-15T03:28:41.181Z,0.80
2023-06-15T03:31:11.874Z,0.80
2023-06-15T03:33:39.178Z,0.88
2023-06-15T03:36:06.582Z,0.80
2023-06-15T03:38:36.126Z,0.95
2023-06-15T03:41:03.175Z,0.90
2023-06-15T03:43:30.519Z,0.80
2023-06-15T03:45:57.571Z,1.00
2023-06-15T03:48:25.374Z,0.73
2023-06-15T03:50:52.523Z,0.82
2023-06-15T03:53:19.711Z,0.65
2023-06-15T03:55:47.801Z,0.70
2023-06-15T03:58:15.769Z,0.82
2023-06-15T04:00:44.709Z,1.00
2023-06-15T04:03:11.984Z,0.70
2023-06-15T04:05:39.598Z,0.77
2023-06-15T04:08:09.598Z,0.68
2023-06-15T04:10:37.653Z,0.70
2023-06-15T04:13:06.215Z,0.70
2023-06-15T04:15:33.557Z,0.82
2023-06-15T04:18:01.877Z,0.80
2023-06-15T04:20:30.220Z,0.73
2023-06-15T04:22:58.324Z,0.50
2023-06-15T04:25:28.387Z,0.65
2023-06-15T04:27:56.183Z,0.70
2023-06-15T04:30:27.697Z,0.88
2023-06-15T04:33:01.413Z,0.50
2023-06-15T04:35:33.065Z,0.80
2023-06-15T04:38:07.426Z,0.75
2023-06-15T04:40:34.732Z,1.00
2023-06-15T04:43:04.399Z,0.70
2023-06-15T04:45:32.229Z,1.00
2023-06-15T04:47:59.881Z,0.80
2023-06-15T04:50:27.007Z,0.70
2023-06-15T04:52:54.041Z,0.80
2023-06-15T04:55:21.158Z,1.00
2023-06-15T04:57:48.153Z,0.75
2023-06-15T05:00:16.439Z,0.80
2023-06-15T05:02:48.950Z,0.77
2023-06-15T05:05:16.965Z,0.90
2023-06-15T05:07:44.812Z,0.82
2023-06-15T05:10:12.618Z,0.82
2023-06-15T05:12:39.870Z,0.80
2023-06-15T05:15:07.480Z,0.80
2023-06-15T05:17:35.097Z,0.80
2023-06-15T05:20:02.280Z,0.60
2023-06-15T05:22:29.422Z,1.13
2023-06-15T05:24:56.533Z,1.08
2023-06-15T05:27:23.602Z,0.70
2023-06-15T05:29:51.676Z,0.60
2023-06-15T05:32:18.905Z,0.70
2023-06-15T05:34:47.214Z,0.65
2023-06-15T05:37:14.303Z,0.85
2023-06-15T05:39:41.676Z,0.77
2023-06-15T05:42:10.410Z,0.80
2023-06-15T05:44:40.665Z,0.60
2023-06-15T05:47:12.111Z,0.82
2023-06-15T05:49:40.629Z,0.70
2023-06-15T05:52:08.522Z,1.05
2023-06-15T05:54:35.838Z,1.05
2023-06-15T05:57:04.113Z,1.00
2023-06-15T05:59:34.111Z,0.80
2023-06-15T06:02:03.369Z,0.95
2023-06-15T06:04:34.745Z,0.70
2023-06-15T06:07:04.284Z,0.60
2023-06-15T06:09:31.292Z,0.80
2023-06-15T06:11:59.138Z,0.90
2023-06-15T06:14:26.933Z,1.00
2023-06-15T06:16:55.201Z,0.73
2023-06-15T06:19:23.607Z,0.93
2023-06-15T06:21:52.448Z,0.65
2023-06-15T06:24:22.190Z,0.70
2023-06-15T06:26:51.077Z,0.68
2023-06-15T06:29:18.204Z,0.73
2023-06-15T06:31:45.380Z,0.90
2023-06-15T06:34:15.234Z,0.80
2023-06-15T06:36:42.253Z,0.90
2023-06-15T06:39:09.288Z,0.98
2023-06-15T06:41:36.292Z,1.23
2023-06-15T06:44:03.516Z,0.68
2023-06-15T06:46:30.630Z,0.52
2023-06-15T06:48:57.663Z,0.80
2023-06-15T06:51:24.723Z,0.90
2023-06-15T06:53:53.904Z,0.80
2023-06-15T06:56:20.905Z,0.70
2023-06-15T06:58:47.997Z,0.70
2023-06-15T07:01:14.985Z,1.00
2023-06-15T07:03:42.194Z,0.93
2023-06-15T07:06:09.206Z,0.80
2023-06-15T07:08:36.243Z,0.65
2023-06-15T07:11:03.311Z,0.70
2023-06-15T07:13:30.609Z,0.63
2023-06-15T07:15:59.262Z,0.90
2023-06-15T07:18:27.190Z,1.02
2023-06-15T07:20:54.967Z,0.80
2023-06-15T07:23:26.988Z,0.60
2023-06-15T07:25:57.568Z,0.70
2023-06-15T07:28:26.044Z,0.60
2023-06-15T07:30:53.086Z,0.80
2023-06-15T07:33:20.173Z,0.73
2023-06-15T07:35:47.588Z,0.70
2023-06-15T07:38:15.906Z,0.70
2023-06-15T07:40:43.339Z,0.70
2023-06-15T07:43:11.496Z,0.52
2023-06-15T07:45:38.759Z,0.75
2023-06-15T07:48:06.783Z,0.70
2023-06-15T07:50:34.043Z,0.80
2023-06-15T07:53:01.605Z,0.75
2023-06-15T07:55:28.561Z,0.70
2023-06-15T07:57:55.788Z,0.70
2023-06-15T08:00:23.810Z,0.80
2023-06-15T08:02:59.662Z,0.75
2023-06-15T08:05:26.910Z,0.95
2023-06-15T08:07:54.017Z,0.85
2023-06-15T08:10:21.195Z,0.68
2023-06-15T08:12:48.223Z,0.73
2023-06-15T08:15:15.667Z,0.93
2023-06-15T08:17:42.717Z,0.90
2023-06-15T08:20:10.675Z,0.68
2023-06-15T08:22:37.856Z,0.70
2023-06-15T08:25:07.181Z,0.73
2023-06-15T08:27:34.096Z,0.60
2023-06-15T08:30:01.197Z,0.57
2023-06-15T08:32:28.479Z,0.80
2023-06-15T08:34:55.530Z,0.77
2023-06-15T08:37:22.672Z,0.70
2023-06-15T08:39:49.732Z,0.60
2023-06-15T08:42:18.709Z,0.77
2023-06-15T08:44:48.536Z,0.80
2023-06-15T08:47:15.711Z,0.90
2023-06-15T08:49:42.718Z,0.80
2023-06-15T08:52:11.622Z,0.80
2023-06-15T08:54:43.116Z,0.57
2023-06-15T08:57:10.809Z,0.88
2023-06-15T08:59:38.305Z,0.70
2023-06-15T09:02:08.850Z,0.93
2023-06-15T09:04:35.982Z,1.17
2023-06-15T09:07:04.868Z,1.00
2023-06-15T09:09:31.808Z,0.88
2023-06-15T09:11:58.795Z,0.98
2023-06-15T09:14:25.913Z,1.00
2023-06-15T09:16:53.104Z,0.80
2023-06-15T09:19:20.952Z,0.65
2023-06-15T09:21:55.268Z,0.80
2023-06-15T09:24:25.580Z,1.00
2023-06-15T09:26:53.005Z,0.95
2023-06-15T09:29:20.066Z,0.80
2023-06-15T09:31:47.129Z,0.80
2023-06-15T09:34:15.271Z,0.80
2023-06-15T09:36:46.578Z,0.73
2023-06-15T09:39:15.016Z,0.93
2023-06-15T09:41:58.346Z,0.93
2023-06-15T09:44:27.222Z,0.70
2023-06-15T09:47:02.795Z,0.70
2023-06-15T09:49:30.052Z,0.80
2023-06-15T09:51:57.313Z,1.20
2023-06-15T09:54:27.258Z,0.85
2023-06-15T09:56:55.096Z,0.70
2023-06-15T09:59:22.853Z,0.85
2023-06-15T10:01:52.240Z,0.60
2023-06-15T10:04:22.784Z,0.73
2023-06-15T10:06:56.519Z,0.70
2023-06-15T10:09:31.249Z,0.95
2023-06-15T10:12:29.242Z,0.90
2023-06-15T10:14:59.653Z,0.85
2023-06-15T10:17:38.956Z,0.90
2023-06-15T10:20:11.998Z,0.68
2023-06-15T10:23:01.579Z,0.60
2023-06-15T10:25:29.841Z,0.70
2023-06-15T10:27:56.946Z,0.60
2023-06-15T10:30:36.230Z,0.80
2023-06-15T10:33:26.996Z,0.90
2023-06-15T10:36:03.320Z,0.70
2023-06-15T10:38:43.909Z,0.70
2023-06-15T10:41:11.372Z,0.70
2023-06-15T10:43:38.529Z,0.65
2023-06-15T10:46:07.808Z,0.50
2023-06-15T10:48:39.984Z,0.80
2023-06-15T10:51:09.333Z,0.60
2023-06-15T10:53:38.383Z,0.70
2023-06-15T10:56:13.309Z,0.80
2023-06-15T10:59:06.776Z,0.70
2023-06-15T11:01:34.177Z,0.75
2023-06-15T11:04:03.521Z,0.70
2023-06-15T11:06:32.933Z,0.80
2023-06-15T11:09:08.617Z,0.70
2023-06-15T11:11:40.368Z,0.82
2023-06-15T11:14:24.748Z,0.52
2023-06-15T11:17:06.564Z,0.70
2023-06-15T11:22:09.027Z,0.60
2023-06-15T11:24:39.496Z,0.57
2023-06-15T11:27:11.184Z,0.60
2023-06-15T11:29:43.241Z,0.68
2023-06-15T11:32:12.420Z,0.70
2023-06-15T11:34:41.030Z,0.63
2023-06-15T11:37:13.843Z,0.70
2023-06-15T11:39:45.881Z,0.70
2023-06-15T11:42:13.067Z,0.73
2023-06-15T11:44:43.122Z,0.70
2023-06-15T11:47:14.608Z,0.63
2023-06-15T11:49:42.177Z,0.60
2023-06-15T11:52:09.455Z,0.80
2023-06-15T11:54:51.456Z,0.80
2023-06-15T11:57:21.820Z,0.60
2023-06-15T11:59:49.319Z,0.93
2023-06-15T12:02:17.974Z,0.80
2023-06-15T12:04:47.452Z,0.60
2023-06-15T12:07:32.018Z,0.75
2023-06-15T12:10:02.346Z,0.50
2023-06-15T12:12:31.599Z,0.70
2023-06-15T12:15:02.815Z,0.80
2023-06-15T12:17:37.684Z,0.98
2023-06-15T12:20:11.483Z,0.73
2023-06-15T12:22:43.839Z,0.90
2023-06-15T12:25:11.658Z,0.70
2023-06-15T12:27:51.890Z,0.70
2023-06-15T12:30:21.698Z,0.60
2023-06-15T12:32:50.627Z,1.45
2023-06-15T12:35:29.356Z,0.70
2023-06-15T12:37:57.833Z,0.70
2023-06-15T12:40:25.074Z,0.55
2023-06-15T12:43:03.202Z,0.50
2023-06-15T12:45:30.437Z,0.50
2023-06-15T12:47:59.579Z,0.70
2023-06-15T12:50:27.338Z,0.60
2023-06-15T12:52:56.513Z,0.60
2023-06-15T12:55:23.718Z,0.40
2023-06-15T12:57:53.319Z,0.88
2023-06-15T13:00:27.962Z,0.63
2023-06-15T13:02:56.148Z,0.70
2023-06-15T13:05:23.684Z,0.70
2023-06-15T13:07:54.240Z,0.80
2023-06-15T13:10:21.575Z,0.90
2023-06-15T13:12:48.882Z,0.50
2023-06-15T13:15:19.006Z,0.60
2023-06-15T13:17:48.092Z,0.70
2023-06-15T13:20:15.535Z,0.60
2023-06-15T13:22:42.835Z,0.60
2023-06-15T13:25:10.402Z,0.60
2023-06-15T13:27:40.145Z,0.77
2023-06-15T13:30:08.989Z,0.88
2023-06-15T13:32:38.421Z,0.70
2023-06-15T13:35:07.266Z,0.70
2023-06-15T13:37:35.890Z,0.80
2023-06-15T13:40:07.806Z,0.85
2023-06-15T13:42:36.356Z,0.90
2023-06-15T13:45:23.432Z,0.90
2023-06-15T13:47:52.460Z,1.00
2023-06-15T13:50:21.350Z,0.60
2023-06-15T13:52:49.635Z,0.93
2023-06-15T13:55:18.661Z,0.93
2023-06-15T13:57:46.622Z,0.90
2023-06-15T14:00:14.161Z,0.85
2023-06-15T14:02:46.058Z,0.85
2023-06-15T14:05:14.864Z,0.85
2023-06-15T14:07:46.906Z,0.90
2023-06-15T14:10:14.103Z,0.80
2023-06-15T14:12:43.296Z,0.80
2023-06-15T14:15:10.933Z,0.80
2023-06-15T14:17:38.676Z,0.75
2023-06-15T14:20:06.409Z,0.73
2023-06-15T14:22:33.411Z,0.70
2023-06-15T14:25:00.548Z,0.70
2023-06-15T14:27:27.909Z,0.68
2023-06-15T14:29:55.021Z,0.52
2023-06-15T14:32:21.978Z,0.70
2023-06-15T14:34:50.387Z,0.98
2023-06-15T14:37:19.486Z,1.00
2023-06-15T14:39:48.062Z,0.80
2023-06-15T14:42:19.487Z,0.80
2023-06-15T14:44:46.768Z,0.80
2023-06-15T14:47:13.788Z,0.70
2023-06-15T14:49:40.823Z,0.65
2023-06-15T14:52:07.828Z,0.65
2023-06-15T14:54:34.829Z,0.65
2023-06-15T14:57:01.861Z,0.57
2023-06-15T14:59:28.933Z,0.60
2023-06-15T15:01:56.092Z,0.80
2023-06-15T15:04:23.477Z,0.60
2023-06-15T15:06:52.193Z,0.88
2023-06-15T15:09:19.331Z,0.50
2023-06-15T15:11:46.479Z,0.70
2023-06-15T15:14:14.922Z,0.70
2023-06-15T15:16:41.977Z,0.70
2023-06-15T15:19:09.033Z,0.57
2023-06-15T15:21:36.150Z,0.70
2023-06-15T15:24:03.445Z,0.60
2023-06-15T15:26:30.541Z,0.80
2023-06-15T15:28:57.552Z,0.60
2023-06-15T15:31:24.693Z,0.50
2023-06-15T15:33:51.946Z,0.60
2023-06-15T15:36:19.053Z,0.60
2023-06-15T15:38:47.370Z,0.55
2023-06-15T15:41:14.649Z,0.60
2023-06-15T15:43:41.886Z,0.50
2023-06-15T15:46:10.943Z,0.70
2023-06-15T15:48:38.010Z,0.50
2023-06-15T15:51:05.275Z,0.73
2023-06-15T15:53:32.314Z,1.05
2023-06-15T15:55:59.576Z,0.82
2023-06-15T15:58:26.910Z,0.85
2023-06-15T16:00:54.108Z,0.63
2023-06-15T16:03:21.292Z,0.60
2023-06-15T16:05:48.623Z,0.75
2023-06-15T16:08:15.683Z,0.80
2023-06-15T16:10:42.726Z,0.80
2023-06-15T16:13:09.914Z,0.60
2023-06-15T16:15:37.043Z,0.68
2023-06-15T16:18:05.770Z,2.03
2023-06-15T16:20:32.885Z,2.15
2023-06-15T16:23:00.586Z,3.50
2023-06-15T16:25:27.848Z,2.90
2023-06-15T16:27:57.915Z,2.13
2023-06-15T16:30:25.037Z,1.70
2023-06-15T16:32:52.263Z,1.40
2023-06-15T16:35:19.422Z,1.00
2023-06-15T16:37:46.787Z,1.05
2023-06-15T16:40:16.093Z,0.90
2023-06-15T16:42:43.480Z,1.02
2023-06-15T16:45:11.040Z,0.98
2023-06-15T16:47:39.707Z,0.77
2023-06-15T16:50:07.442Z,0.77
2023-06-15T16:52:35.883Z,0.80
2023-06-15T16:55:03.354Z,0.80
2023-06-15T16:57:30.619Z,0.80
2023-06-15T17:00:18.508Z,0.80
2023-06-15T17:02:48.788Z,0.98
2023-06-15T17:05:19.743Z,0.68
2023-06-15T17:07:47.259Z,0.88
2023-06-15T17:10:21.182Z,0.70
2023-06-15T17:12:51.598Z,1.00
2023-06-15T17:15:21.973Z,0.70
2023-06-15T17:18:01.368Z,0.73
2023-06-15T17:20:47.541Z,0.77
2023-06-15T17:23:14.789Z,0.98
2023-06-15T17:25:41.948Z,0.73
2023-06-15T17:28:09.337Z,0.88
2023-06-15T17:30:43.256Z,0.80
2023-06-15T17:33:10.783Z,0.80
2023-06-15T17:35:37.982Z,0.63
2023-06-15T17:38:05.182Z,0.82
2023-06-15T17:40:32.377Z,0.70
2023-06-15T17:42:59.688Z,0.70
2023-06-15T17:45:28.052Z,0.73
2023-06-15T17:47:55.548Z,0.73
2023-06-15T17:50:25.271Z,0.73
2023-06-15T17:52:52.515Z,0.70
2023-06-15T17:55:19.958Z,1.02
2023-06-15T17:57:47.217Z,0.82
2023-06-15T18:00:15.028Z,0.60
2023-06-15T18:02:52.276Z,0.70
2023-06-15T18:05:28.905Z,0.90
2023-06-15T18:11:34.519Z,0.80
2023-06-15T18:14:01.488Z,0.65
2023-06-15T18:16:29.426Z,0.60
2023-06-15T18:18:59.345Z,0.88
2023-06-15T18:21:26.565Z,0.90
2023-06-15T18:23:53.719Z,0.73
2023-06-15T18:26:21.381Z,0.75
2023-06-15T18:28:48.416Z,0.80
2023-06-15T18:31:15.461Z,0.70
2023-06-15T18:33:42.515Z,0.82
2023-06-15T18:36:09.664Z,0.70
2023-06-15T18:38:36.703Z,0.73
2023-06-15T18:41:03.978Z,0.60
2023-06-15T18:43:31.139Z,0.98
2023-06-15T18:45:58.598Z,0.70
2023-06-15T18:48:25.954Z,0.75
2023-06-15T18:50:53.021Z,0.77
2023-06-15T18:53:20.015Z,0.70
2023-06-15T18:55:52.847Z,1.13
2023-06-15T18:58:21.817Z,0.70
2023-06-15T19:00:48.906Z,0.68
2023-06-15T19:03:20.021Z,0.70
2023-06-15T19:05:47.434Z,0.65
2023-06-15T19:08:14.647Z,0.70
2023-06-15T19:11:21.756Z,0.70
2023-06-15T19:13:49.539Z,0.75
2023-06-15T19:16:16.708Z,0.85
2023-06-15T19:18:43.768Z,0.63
2023-06-15T19:21:13.642Z,0.60
2023-06-15T19:23:41.266Z,0.70
2023-06-15T19:26:17.771Z,0.80
2023-06-15T19:28:45.048Z,0.63
2023-06-15T19:31:14.915Z,0.80
2023-06-15T19:33:41.951Z,0.65
2023-06-15T19:36:08.952Z,0.70
2023-06-15T19:38:42.793Z,0.80
2023-06-15T19:41:16.567Z,0.70
2023-06-15T19:43:43.847Z,0.73
2023-06-15T19:46:11.219Z,0.80
2023-06-15T19:48:38.571Z,0.80
2023-06-15T19:51:05.630Z,0.85
2023-06-15T19:53:35.191Z,0.70
2023-06-15T19:56:03.872Z,0.65
2023-06-15T19:58:35.055Z,1.00
2023-06-15T20:01:05.951Z,0.70
2023-06-15T20:03:34.322Z,0.80
2023-06-15T20:06:07.662Z,0.60
2023-06-15T20:08:36.872Z,0.90
2023-06-15T20:11:09.142Z,0.63
2023-06-15T20:13:37.682Z,0.93
2023-06-15T20:16:13.762Z,0.60
2023-06-15T20:18:46.446Z,0.60
2023-06-15T20:21:14.581Z,0.80
2023-06-15T20:23:43.551Z,0.75
2023-06-15T20:26:17.570Z,0.70
2023-06-15T20:28:45.320Z,0.60
2023-06-15T20:31:12.912Z,0.70
2023-06-15T20:33:42.166Z,0.55
2023-06-15T20:36:09.367Z,0.55
2023-06-15T20:38:36.536Z,0.80
2023-06-15T20:41:05.418Z,0.60
2023-06-15T20:43:33.110Z,0.90
2023-06-15T20:46:01.590Z,0.80
2023-06-15T20:48:33.552Z,0.80
2023-06-15T20:51:39.762Z,0.85
2023-06-15T20:54:06.852Z,0.70
2023-06-15T20:56:33.873Z,0.90
2023-06-15T20:59:01.248Z,0.82
2023-06-15T21:01:28.445Z,0.77
2023-06-15T21:03:58.702Z,0.85
2023-06-15T21:06:25.674Z,0.70
2023-06-15T21:08:53.196Z,0.80
2023-06-15T21:11:20.613Z,0.70
2023-06-15T21:13:50.394Z,0.68
2023-06-15T21:16:18.072Z,1.20
2023-06-15T21:18:45.387Z,0.90
2023-06-15T21:21:12.481Z,0.90
2023-06-15T21:23:41.940Z,1.00
2023-06-15T21:26:09.036Z,0.85
2023-06-15T21:28:36.080Z,0.68
2023-06-15T21:31:04.290Z,0.85
2023-06-15T21:33:31.433Z,0.75
2023-06-15T21:35:58.538Z,0.80
2023-06-15T21:38:27.248Z,0.70
2023-06-15T21:40:54.572Z,0.70
2023-06-15T21:43:21.672Z,0.60
2023-06-15T21:45:48.973Z,0.90
2023-06-15T21:48:16.151Z,0.70
2023-06-15T21:50:43.335Z,0.80
2023-06-15T21:53:10.751Z,0.60
2023-06-15T21:55:37.928Z,0.60
2023-06-15T21:58:05.114Z,0.70
2023-06-15T22:00:32.452Z,0.65
2023-06-15T22:02:59.474Z,0.63
2023-06-15T22:05:26.698Z,0.90
2023-06-15T22:07:57.444Z,0.73
2023-06-15T22:10:24.764Z,0.80
2023-06-15T22:12:52.977Z,0.60
2023-06-15T22:15:22.943Z,0.70
2023-06-15T22:17:50.800Z,0.65
2023-06-15T22:20:20.634Z,0.75
2023-06-15T22:22:48.114Z,1.02
2023-06-15T22:25:15.478Z,1.00
2023-06-15T22:27:45.048Z,0.70
2023-06-15T22:30:12.351Z,0.60
2023-06-15T22:32:39.358Z,0.60
2023-06-15T22:35:06.903Z,0.75
2023-06-15T22:37:34.201Z,0.70
2023-06-15T22:40:01.451Z,0.60
2023-06-15T22:42:28.448Z,0.68
2023-06-15T22:44:55.808Z,0.65
2023-06-15T22:47:26.995Z,0.70
2023-06-15T22:49:54.138Z,0.60
2023-06-15T22:52:22.080Z,0.70
2023-06-15T22:54:52.238Z,0.70
2023-06-15T22:57:19.452Z,0.68
2023-06-15T22:59:49.139Z,0.80
2023-06-15T23:02:19.910Z,0.50
2023-06-15T23:04:47.350Z,0.77
2023-06-15T23:07:14.377Z,0.90
2023-06-15T23:09:41.406Z,0.70
2023-06-15T23:12:11.305Z,0.40
2023-06-15T23:14:40.114Z,0.65
2023-06-15T23:17:08.114Z,0.60
2023-06-15T23:19:35.140Z,0.70
2023-06-15T23:22:06.050Z,0.80
2023-06-15T23:24:33.564Z,0.60
2023-06-15T23:27:00.614Z,0.70
2023-06-15T23:29:28.580Z,0.70
2023-06-15T23:31:55.770Z,0.70
2023-06-15T23:34:22.824Z,0.50
2023-06-15T23:36:49.738Z,0.73
2023-06-15T23:39:16.794Z,0.80
2023-06-15T23:41:43.866Z,0.60
2023-06-15T23:44:10.912Z,0.50
2023-06-15T23:46:38.070Z,0.57
2023-06-15T23:49:05.115Z,0.60
2023-06-15T23:51:32.106Z,0.75
2023-06-15T23:53:59.119Z,0.50
2023-06-15T23:56:26.742Z,0.73
2023-06-15T23:58:53.753Z,0.60
